sensor_id;sensor_type;location;lat;lon;timestamp;P1;durP1;ratioP1;P2;durP2;ratioP2
39948;SDS011;29070;48.102;-1.652;2023-09-07T00:04:47;17.00;;;4.37;;
39948;SDS011;29070;48.102;-1.652;2023-09-07T00:09:49;19.95;;;3.92;;
39948;SDS011;29070;48.102;-1.652;2023-09-07T00:14:50;16.57;;;4.87;;
39948;SDS011;29070;48.102;-1.652;2023-09-07T00:19:50;13.63;;;3.90;;
39948;SDS011;29070;48.102;-1.652;2023-09-07T00:24:51;14.50;;;4.72;;
39948;SDS011;29070;48.102;-1.652;2023-09-07T00:29:51;15.80;;;5.00;;
39948;SDS011;29070;48.102;-1.652;2023-09-07T00:34:51;17.20;;;3.87;;
39948;SDS011;29070;48.102;-1.652;2023-09-07T00:39:52;13.97;;;4.53;;
39948;SDS011;29070;48.102;-1.652;2023-09-07T00:44:53;17.08;;;4.35;;
39948;SDS011;29070;48.102;-1.652;2023-09-07T00:49:53;15.65;;;4.95;;
39948;SDS011;29070;48.102;-1.652;2023-09-07T00:54:54;12.02;;;3.95;;
39948;SDS011;29070;48.102;-1.652;2023-09-07T00:59:54;21.48;;;5.40;;
39948;SDS011;29070;48.102;-1.652;2023-09-07T01:04:55;16.40;;;4.43;;
39948;SDS011;29070;48.102;-1.652;2023-09-07T01:09:56;22.70;;;4.83;;
39948;SDS011;29070;48.102;-1.652;2023-09-07T01:14:57;19.98;;;4.70;;
39948;SDS011;29070;48.102;-1.652;2023-09-07T01:19:58;16.23;;;4.90;;
39948;SDS011;29070;48.102;-1.652;2023-09-07T01:25:06;16.70;;;5.50;;
39948;SDS011;29070;48.102;-1.652;2023-09-07T01:30:07;9.90;;;4.07;;
39948;SDS011;29070;48.102;-1.652;2023-09-07T01:35:08;17.05;;;4.90;;
39948;SDS011;29070;48.102;-1.652;2023-09-07T01:40:11;13.77;;;4.35;;
39948;SDS011;29070;48.102;-1.652;2023-09-07T01:45:11;11.23;;;4.13;;
39948;SDS011;29070;48.102;-1.652;2023-09-07T01:50:11;18.90;;;4.50;;
39948;SDS011;29070;48.102;-1.652;2023-09-07T01:55:14;14.48;;;3.88;;
39948;SDS011;29070;48.102;-1.652;2023-09-07T02:00:14;13.50;;;4.03;;
39948;SDS011;29070;48.102;-1.652;2023-09-07T02:05:14;17.47;;;4.10;;
39948;SDS011;29070;48.102;-1.652;2023-09-07T02:10:16;15.73;;;4.07;;
39948;SDS011;29070;48.102;-1.652;2023-09-07T02:15:16;16.70;;;4.47;;
39948;SDS011;29070;48.102;-1.652;2023-09-07T02:20:17;11.75;;;3.85;;
39948;SDS011;29070;48.102;-1.652;2023-09-07T02:25:18;23.00;;;4.13;;
39948;SDS011;29070;48.102;-1.652;2023-09-07T02:30:19;15.53;;;4.50;;
39948;SDS011;29070;48.102;-1.652;2023-09-07T02:35:19;14.10;;;4.17;;
39948;SDS011;29070;48.102;-1.652;2023-09-07T02:40:19;13.50;;;4.00;;
39948;SDS011;29070;48.102;-1.652;2023-09-07T02:45:20;17.23;;;4.00;;
39948;SDS011;29070;48.102;-1.652;2023-09-07T02:50:21;17.13;;;4.50;;
39948;SDS011;29070;48.102;-1.652;2023-09-07T02:55:21;18.87;;;4.33;;
39948;SDS011;29070;48.102;-1.652;2023-09-07T03:00:21;14.67;;;4.87;;
39948;SDS011;29070;48.102;-1.652;2023-09-07T03:05:22;16.73;;;4.80;;
39948;SDS011;29070;48.102;-1.652;2023-09-07T03:10:22;16.77;;;5.40;;
39948;SDS011;29070;48.102;-1.652;2023-09-07T03:15:23;19.83;;;5.13;;
39948;SDS011;29070;48.102;-1.652;2023-09-07T03:20:23;13.10;;;3.77;;
39948;SDS011;29070;48.102;-1.652;2023-09-07T03:25:24;14.13;;;4.95;;
39948;SDS011;29070;48.102;-1.652;2023-09-07T03:30:24;12.57;;;4.50;;
39948;SDS011;29070;48.102;-1.652;2023-09-07T03:35:24;13.35;;;4.07;;
39948;SDS011;29070;48.102;-1.652;2023-09-07T03:40:26;18.48;;;4.55;;
39948;SDS011;29070;48.102;-1.652;2023-09-07T03:45:26;16.83;;;4.77;;
39948;SDS011;29070;48.102;-1.652;2023-09-07T03:50:26;9.87;;;4.33;;
39948;SDS011;29070;48.102;-1.652;2023-09-07T03:55:27;15.82;;;5.20;;
39948;SDS011;29070;48.102;-1.652;2023-09-07T04:00:29;15.83;;;4.37;;
39948;SDS011;29070;48.102;-1.652;2023-09-07T04:05:30;14.35;;;4.88;;
39948;SDS011;29070;48.102;-1.652;2023-09-07T04:10:31;17.63;;;4.07;;
39948;SDS011;29070;48.102;-1.652;2023-09-07T04:15:32;15.88;;;4.47;;
39948;SDS011;29070;48.102;-1.652;2023-09-07T04:20:45;13.77;;;4.47;;
39948;SDS011;29070;48.102;-1.652;2023-09-07T04:25:45;20.37;;;4.83;;
39948;SDS011;29070;48.102;-1.652;2023-09-07T04:30:46;23.93;;;4.40;;
39948;SDS011;29070;48.102;-1.652;2023-09-07T04:35:46;15.77;;;4.27;;
39948;SDS011;29070;48.102;-1.652;2023-09-07T04:40:46;17.57;;;5.13;;
39948;SDS011;29070;48.102;-1.652;2023-09-07T04:45:47;12.93;;;4.10;;
39948;SDS011;29070;48.102;-1.652;2023-09-07T04:50:47;24.27;;;5.27;;
39948;SDS011;29070;48.102;-1.652;2023-09-07T04:55:47;23.07;;;5.10;;
39948;SDS011;29070;48.102;-1.652;2023-09-07T05:00:48;16.20;;;4.80;;
39948;SDS011;29070;48.102;-1.652;2023-09-07T05:05:52;21.13;;;4.93;;
39948;SDS011;29070;48.102;-1.652;2023-09-07T05:10:56;17.70;;;4.73;;
39948;SDS011;29070;48.102;-1.652;2023-09-07T05:21:00;17.60;;;4.90;;
39948;SDS011;29070;48.102;-1.652;2023-09-07T05:26:00;19.57;;;4.37;;
39948;SDS011;29070;48.102;-1.652;2023-09-07T05:31:01;15.97;;;4.30;;
39948;SDS011;29070;48.102;-1.652;2023-09-07T05:36:01;15.70;;;4.60;;
39948;SDS011;29070;48.102;-1.652;2023-09-07T05:41:01;16.02;;;5.30;;
39948;SDS011;29070;48.102;-1.652;2023-09-07T05:46:02;17.60;;;4.53;;
39948;SDS011;29070;48.102;-1.652;2023-09-07T05:51:02;19.30;;;5.05;;
39948;SDS011;29070;48.102;-1.652;2023-09-07T05:56:03;14.63;;;4.55;;
39948;SDS011;29070;48.102;-1.652;2023-09-07T06:01:04;13.20;;;5.23;;
39948;SDS011;29070;48.102;-1.652;2023-09-07T06:06:05;13.48;;;4.50;;
39948;SDS011;29070;48.102;-1.652;2023-09-07T06:11:06;19.90;;;4.40;;
39948;SDS011;29070;48.102;-1.652;2023-09-07T06:16:06;16.98;;;5.18;;
39948;SDS011;29070;48.102;-1.652;2023-09-07T06:21:06;16.77;;;5.27;;
39948;SDS011;29070;48.102;-1.652;2023-09-07T06:26:07;13.88;;;5.10;;
39948;SDS011;29070;48.102;-1.652;2023-09-07T06:31:07;16.27;;;5.43;;
39948;SDS011;29070;48.102;-1.652;2023-09-07T06:36:08;17.37;;;5.10;;
39948;SDS011;29070;48.102;-1.652;2023-09-07T06:41:08;16.43;;;5.90;;
39948;SDS011;29070;48.102;-1.652;2023-09-07T06:46:09;13.70;;;4.50;;
39948;SDS011;29070;48.102;-1.652;2023-09-07T06:51:09;16.47;;;5.23;;
39948;SDS011;29070;48.102;-1.652;2023-09-07T06:56:10;21.97;;;6.30;;
39948;SDS011;29070;48.102;-1.652;2023-09-07T07:01:10;14.93;;;5.50;;
39948;SDS011;29070;48.102;-1.652;2023-09-07T07:06:11;13.90;;;6.07;;
39948;SDS011;29070;48.102;-1.652;2023-09-07T07:11:11;11.03;;;4.53;;
39948;SDS011;29070;48.102;-1.652;2023-09-07T07:16:11;18.33;;;5.43;;
39948;SDS011;29070;48.102;-1.652;2023-09-07T07:21:12;15.47;;;4.50;;
39948;SDS011;29070;48.102;-1.652;2023-09-07T07:26:12;19.33;;;5.23;;
39948;SDS011;29070;48.102;-1.652;2023-09-07T07:31:12;11.67;;;4.03;;
39948;SDS011;29070;48.102;-1.652;2023-09-07T07:36:13;16.07;;;3.97;;
39948;SDS011;29070;48.102;-1.652;2023-09-07T07:41:13;11.30;;;4.57;;
39948;SDS011;29070;48.102;-1.652;2023-09-07T07:46:14;14.32;;;4.07;;
39948;SDS011;29070;48.102;-1.652;2023-09-07T07:51:15;17.17;;;3.80;;
39948;SDS011;29070;48.102;-1.652;2023-09-07T07:56:19;12.90;;;4.30;;
39948;SDS011;29070;48.102;-1.652;2023-09-07T08:01:19;13.98;;;4.53;;
39948;SDS011;29070;48.102;-1.652;2023-09-07T08:06:20;11.20;;;3.80;;
39948;SDS011;29070;48.102;-1.652;2023-09-07T08:11:20;8.80;;;4.03;;
39948;SDS011;29070;48.102;-1.652;2023-09-07T08:16:21;12.23;;;3.80;;
39948;SDS011;29070;48.102;-1.652;2023-09-07T08:21:22;11.25;;;3.63;;
39948;SDS011;29070;48.102;-1.652;2023-09-07T08:26:22;9.13;;;3.47;;
39948;SDS011;29070;48.102;-1.652;2023-09-07T08:31:22;12.03;;;4.20;;
39948;SDS011;29070;48.102;-1.652;2023-09-07T08:36:23;10.87;;;4.37;;
39948;SDS011;29070;48.102;-1.652;2023-09-07T08:41:23;17.38;;;4.10;;
39948;SDS011;29070;48.102;-1.652;2023-09-07T08:46:24;9.48;;;3.33;;
39948;SDS011;29070;48.102;-1.652;2023-09-07T08:51:26;9.40;;;3.00;;
39948;SDS011;29070;48.102;-1.652;2023-09-07T08:56:28;8.27;;;4.00;;
39948;SDS011;29070;48.102;-1.652;2023-09-07T09:01:28;10.10;;;3.40;;
39948;SDS011;29070;48.102;-1.652;2023-09-07T09:06:31;11.18;;;3.13;;
39948;SDS011;29070;48.102;-1.652;2023-09-07T09:11:31;9.00;;;3.80;;
39948;SDS011;29070;48.102;-1.652;2023-09-07T09:16:32;8.55;;;3.30;;
39948;SDS011;29070;48.102;-1.652;2023-09-07T09:21:32;10.20;;;4.37;;
39948;SDS011;29070;48.102;-1.652;2023-09-07T09:26:33;10.97;;;4.40;;
39948;SDS011;29070;48.102;-1.652;2023-09-07T09:31:33;10.05;;;4.07;;
39948;SDS011;29070;48.102;-1.652;2023-09-07T09:36:34;9.65;;;3.55;;
39948;SDS011;29070;48.102;-1.652;2023-09-07T09:41:35;11.90;;;3.42;;
39948;SDS011;29070;48.102;-1.652;2023-09-07T09:46:38;10.40;;;3.28;;
39948;SDS011;29070;48.102;-1.652;2023-09-07T09:51:39;7.53;;;3.47;;
39948;SDS011;29070;48.102;-1.652;2023-09-07T09:56:42;7.43;;;3.30;;
39948;SDS011;29070;48.102;-1.652;2023-09-07T10:01:46;13.93;;;3.70;;
39948;SDS011;29070;48.102;-1.652;2023-09-07T10:06:55;10.52;;;3.38;;
39948;SDS011;29070;48.102;-1.652;2023-09-07T10:12:00;4.38;;;2.53;;
39948;SDS011;29070;48.102;-1.652;2023-09-07T10:17:03;12.52;;;3.38;;
39948;SDS011;29070;48.102;-1.652;2023-09-07T10:22:04;7.80;;;2.70;;
39948;SDS011;29070;48.102;-1.652;2023-09-07T10:27:05;10.10;;;3.10;;
39948;SDS011;29070;48.102;-1.652;2023-09-07T10:32:07;7.78;;;2.58;;
39948;SDS011;29070;48.102;-1.652;2023-09-07T10:37:12;7.60;;;2.38;;
39948;SDS011;29070;48.102;-1.652;2023-09-07T10:42:24;8.68;;;2.80;;
39948;SDS011;29070;48.102;-1.652;2023-09-07T10:47:25;9.35;;;2.72;;
39948;SDS011;29070;48.102;-1.652;2023-09-07T10:52:25;10.90;;;3.07;;
39948;SDS011;29070;48.102;-1.652;2023-09-07T10:57:25;8.87;;;2.63;;
39948;SDS011;29070;48.102;-1.652;2023-09-07T11:02:26;9.10;;;2.50;;
39948;SDS011;29070;48.102;-1.652;2023-09-07T11:07:27;11.10;;;2.53;;
39948;SDS011;29070;48.102;-1.652;2023-09-07T11:12:27;17.38;;;2.72;;
39948;SDS011;29070;48.102;-1.652;2023-09-07T11:17:28;14.20;;;3.17;;
39948;SDS011;29070;48.102;-1.652;2023-09-07T11:22:29;13.60;;;3.43;;
39948;SDS011;29070;48.102;-1.652;2023-09-07T11:27:31;17.38;;;3.75;;
39948;SDS011;29070;48.102;-1.652;2023-09-07T11:32:36;11.07;;;2.78;;
39948;SDS011;29070;48.102;-1.652;2023-09-07T11:37:37;9.13;;;2.80;;
39948;SDS011;29070;48.102;-1.652;2023-09-07T11:42:38;11.57;;;2.33;;
39948;SDS011;29070;48.102;-1.652;2023-09-07T11:47:39;12.07;;;2.78;;
39948;SDS011;29070;48.102;-1.652;2023-09-07T11:52:39;16.25;;;2.97;;
39948;SDS011;29070;48.102;-1.652;2023-09-07T11:57:40;5.47;;;2.20;;
39948;SDS011;29070;48.102;-1.652;2023-09-07T12:02:41;11.50;;;2.75;;
39948;SDS011;29070;48.102;-1.652;2023-09-07T12:07:41;15.50;;;2.90;;
39948;SDS011;29070;48.102;-1.652;2023-09-07T12:12:45;13.00;;;2.97;;
39948;SDS011;29070;48.102;-1.652;2023-09-07T12:17:45;11.00;;;2.90;;
39948;SDS011;29070;48.102;-1.652;2023-09-07T12:22:46;15.73;;;3.20;;
39948;SDS011;29070;48.102;-1.652;2023-09-07T12:27:47;13.13;;;2.90;;
39948;SDS011;29070;48.102;-1.652;2023-09-07T12:32:47;13.40;;;3.13;;
39948;SDS011;29070;48.102;-1.652;2023-09-07T12:37:48;17.88;;;2.78;;
39948;SDS011;29070;48.102;-1.652;2023-09-07T12:42:49;14.63;;;3.13;;
39948;SDS011;29070;48.102;-1.652;2023-09-07T12:47:49;8.63;;;2.60;;
39948;SDS011;29070;48.102;-1.652;2023-09-07T12:52:49;9.87;;;2.60;;
39948;SDS011;29070;48.102;-1.652;2023-09-07T12:57:50;18.43;;;2.70;;
39948;SDS011;29070;48.102;-1.652;2023-09-07T13:02:50;17.07;;;2.97;;
39948;SDS011;29070;48.102;-1.652;2023-09-07T13:07:51;7.50;;;3.07;;
39948;SDS011;29070;48.102;-1.652;2023-09-07T13:12:52;11.75;;;2.08;;
39948;SDS011;29070;48.102;-1.652;2023-09-07T13:17:52;16.77;;;2.93;;
39948;SDS011;29070;48.102;-1.652;2023-09-07T13:22:53;13.33;;;2.67;;
39948;SDS011;29070;48.102;-1.652;2023-09-07T13:27:53;18.53;;;2.83;;
39948;SDS011;29070;48.102;-1.652;2023-09-07T13:32:53;14.50;;;2.30;;
39948;SDS011;29070;48.102;-1.652;2023-09-07T13:37:54;15.57;;;3.37;;
39948;SDS011;29070;48.102;-1.652;2023-09-07T13:42:55;5.50;;;2.50;;
39948;SDS011;29070;48.102;-1.652;2023-09-07T13:47:56;7.38;;;2.45;;
39948;SDS011;29070;48.102;-1.652;2023-09-07T13:52:56;15.18;;;3.47;;
39948;SDS011;29070;48.102;-1.652;2023-09-07T13:57:57;7.30;;;2.33;;
39948;SDS011;29070;48.102;-1.652;2023-09-07T14:02:57;17.20;;;2.73;;
39948;SDS011;29070;48.102;-1.652;2023-09-07T14:07:57;9.87;;;2.97;;
39948;SDS011;29070;48.102;-1.652;2023-09-07T14:12:58;11.00;;;2.50;;
39948;SDS011;29070;48.102;-1.652;2023-09-07T14:17:59;16.58;;;3.00;;
39948;SDS011;29070;48.102;-1.652;2023-09-07T14:23:01;7.20;;;2.70;;
39948;SDS011;29070;48.102;-1.652;2023-09-07T14:28:01;13.63;;;2.90;;
39948;SDS011;29070;48.102;-1.652;2023-09-07T14:33:01;9.73;;;2.77;;
39948;SDS011;29070;48.102;-1.652;2023-09-07T14:38:02;7.67;;;1.97;;
39948;SDS011;29070;48.102;-1.652;2023-09-07T14:43:03;8.63;;;2.30;;
39948;SDS011;29070;48.102;-1.652;2023-09-07T14:48:05;5.47;;;2.05;;
39948;SDS011;29070;48.102;-1.652;2023-09-07T14:53:06;13.45;;;2.72;;
39948;SDS011;29070;48.102;-1.652;2023-09-07T14:58:06;8.60;;;2.23;;
39948;SDS011;29070;48.102;-1.652;2023-09-07T15:03:09;6.28;;;2.47;;
39948;SDS011;29070;48.102;-1.652;2023-09-07T15:08:09;6.60;;;2.57;;
39948;SDS011;29070;48.102;-1.652;2023-09-07T15:13:10;8.77;;;2.40;;
39948;SDS011;29070;48.102;-1.652;2023-09-07T15:18:10;6.10;;;2.23;;
39948;SDS011;29070;48.102;-1.652;2023-09-07T15:23:10;7.27;;;2.60;;
39948;SDS011;29070;48.102;-1.652;2023-09-07T15:28:11;15.70;;;3.10;;
39948;SDS011;29070;48.102;-1.652;2023-09-07T15:33:11;7.73;;;2.70;;
39948;SDS011;29070;48.102;-1.652;2023-09-07T15:38:11;7.10;;;2.83;;
39948;SDS011;29070;48.102;-1.652;2023-09-07T15:43:12;11.20;;;3.20;;
39948;SDS011;29070;48.102;-1.652;2023-09-07T15:48:12;9.60;;;2.83;;
39948;SDS011;29070;48.102;-1.652;2023-09-07T15:53:13;13.03;;;3.13;;
39948;SDS011;29070;48.102;-1.652;2023-09-07T15:58:13;15.88;;;3.03;;
39948;SDS011;29070;48.102;-1.652;2023-09-07T16:03:14;11.85;;;2.45;;
39948;SDS011;29070;48.102;-1.652;2023-09-07T16:08:15;16.47;;;2.90;;
39948;SDS011;29070;48.102;-1.652;2023-09-07T16:13:16;6.82;;;2.58;;
39948;SDS011;29070;48.102;-1.652;2023-09-07T16:18:16;5.23;;;2.53;;
39948;SDS011;29070;48.102;-1.652;2023-09-07T16:23:17;11.50;;;2.63;;
39948;SDS011;29070;48.102;-1.652;2023-09-07T16:28:17;9.30;;;2.23;;
39948;SDS011;29070;48.102;-1.652;2023-09-07T16:33:17;10.37;;;3.33;;
39948;SDS011;29070;48.102;-1.652;2023-09-07T16:38:19;12.25;;;3.05;;
39948;SDS011;29070;48.102;-1.652;2023-09-07T16:43:20;6.82;;;2.50;;
39948;SDS011;29070;48.102;-1.652;2023-09-07T16:48:24;11.30;;;2.78;;
39948;SDS011;29070;48.102;-1.652;2023-09-07T16:53:24;7.20;;;2.83;;
39948;SDS011;29070;48.102;-1.652;2023-09-07T16:58:25;8.47;;;2.57;;
39948;SDS011;29070;48.102;-1.652;2023-09-07T17:03:25;17.80;;;2.87;;
39948;SDS011;29070;48.102;-1.652;2023-09-07T17:08:25;11.77;;;2.87;;
39948;SDS011;29070;48.102;-1.652;2023-09-07T17:13:26;10.60;;;2.80;;
39948;SDS011;29070;48.102;-1.652;2023-09-07T17:18:26;10.07;;;2.37;;
39948;SDS011;29070;48.102;-1.652;2023-09-07T17:23:26;10.00;;;2.63;;
39948;SDS011;29070;48.102;-1.652;2023-09-07T17:28:27;7.90;;;2.07;;
39948;SDS011;29070;48.102;-1.652;2023-09-07T17:33:27;7.60;;;2.73;;
39948;SDS011;29070;48.102;-1.652;2023-09-07T17:38:28;4.73;;;2.60;;
39948;SDS011;29070;48.102;-1.652;2023-09-07T17:43:28;17.20;;;3.37;;
39948;SDS011;29070;48.102;-1.652;2023-09-07T17:48:29;15.55;;;3.70;;
39948;SDS011;29070;48.102;-1.652;2023-09-07T17:53:29;7.33;;;2.73;;
39948;SDS011;29070;48.102;-1.652;2023-09-07T17:58:29;9.10;;;2.50;;
39948;SDS011;29070;48.102;-1.652;2023-09-07T18:03:30;5.37;;;2.40;;
39948;SDS011;29070;48.102;-1.652;2023-09-07T18:08:31;6.50;;;2.28;;
39948;SDS011;29070;48.102;-1.652;2023-09-07T18:13:32;8.43;;;2.17;;
39948;SDS011;29070;48.102;-1.652;2023-09-07T18:18:32;9.50;;;2.85;;
39948;SDS011;29070;48.102;-1.652;2023-09-07T18:23:34;8.52;;;2.88;;
39948;SDS011;29070;48.102;-1.652;2023-09-07T18:28:35;8.00;;;3.05;;
39948;SDS011;29070;48.102;-1.652;2023-09-07T18:33:35;10.03;;;3.03;;
39948;SDS011;29070;48.102;-1.652;2023-09-07T18:38:36;9.20;;;3.00;;
39948;SDS011;29070;48.102;-1.652;2023-09-07T18:43:37;8.03;;;2.93;;
39948;SDS011;29070;48.102;-1.652;2023-09-07T18:48:37;10.88;;;3.00;;
39948;SDS011;29070;48.102;-1.652;2023-09-07T18:53:38;10.73;;;3.53;;
39948;SDS011;29070;48.102;-1.652;2023-09-07T18:58:38;5.70;;;3.07;;
39948;SDS011;29070;48.102;-1.652;2023-09-07T19:03:38;7.17;;;3.20;;
39948;SDS011;29070;48.102;-1.652;2023-09-07T19:08:39;9.13;;;3.47;;
39948;SDS011;29070;48.102;-1.652;2023-09-07T19:13:39;12.80;;;3.80;;
39948;SDS011;29070;48.102;-1.652;2023-09-07T19:18:39;8.03;;;3.97;;
39948;SDS011;29070;48.102;-1.652;2023-09-07T19:23:40;9.53;;;3.63;;
39948;SDS011;29070;48.102;-1.652;2023-09-07T19:28:41;9.73;;;3.90;;
39948;SDS011;29070;48.102;-1.652;2023-09-07T19:33:41;10.33;;;3.97;;
39948;SDS011;29070;48.102;-1.652;2023-09-07T19:38:41;8.70;;;3.60;;
39948;SDS011;29070;48.102;-1.652;2023-09-07T19:43:42;11.13;;;3.50;;
39948;SDS011;29070;48.102;-1.652;2023-09-07T19:48:44;9.15;;;3.97;;
39948;SDS011;29070;48.102;-1.652;2023-09-07T19:53:46;6.00;;;3.78;;
39948;SDS011;29070;48.102;-1.652;2023-09-07T19:58:47;7.95;;;3.88;;
39948;SDS011;29070;48.102;-1.652;2023-09-07T20:03:48;5.73;;;3.77;;
39948;SDS011;29070;48.102;-1.652;2023-09-07T20:08:50;7.68;;;3.40;;
39948;SDS011;29070;48.102;-1.652;2023-09-07T20:13:51;11.18;;;3.67;;
39948;SDS011;29070;48.102;-1.652;2023-09-07T20:18:51;10.97;;;3.93;;
39948;SDS011;29070;48.102;-1.652;2023-09-07T20:23:51;10.23;;;3.63;;
39948;SDS011;29070;48.102;-1.652;2023-09-07T20:28:52;8.73;;;3.83;;
39948;SDS011;29070;48.102;-1.652;2023-09-07T20:33:53;13.32;;;3.85;;
39948;SDS011;29070;48.102;-1.652;2023-09-07T20:38:53;9.95;;;4.10;;
39948;SDS011;29070;48.102;-1.652;2023-09-07T20:43:54;8.73;;;4.35;;
39948;SDS011;29070;48.102;-1.652;2023-09-07T20:48:55;9.73;;;4.70;;
39948;SDS011;29070;48.102;-1.652;2023-09-07T20:53:55;9.23;;;4.00;;
39948;SDS011;29070;48.102;-1.652;2023-09-07T20:58:55;11.30;;;4.53;;
39948;SDS011;29070;48.102;-1.652;2023-09-07T21:03:56;10.13;;;4.10;;
39948;SDS011;29070;48.102;-1.652;2023-09-07T21:08:56;11.20;;;4.67;;
39948;SDS011;29070;48.102;-1.652;2023-09-07T21:13:57;11.53;;;4.17;;
39948;SDS011;29070;48.102;-1.652;2023-09-07T21:18:57;15.77;;;5.03;;
39948;SDS011;29070;48.102;-1.652;2023-09-07T21:23:57;13.40;;;4.38;;
39948;SDS011;29070;48.102;-1.652;2023-09-07T21:28:58;18.50;;;4.85;;
39948;SDS011;29070;48.102;-1.652;2023-09-07T21:33:58;8.23;;;4.30;;
39948;SDS011;29070;48.102;-1.652;2023-09-07T21:38:59;10.57;;;4.00;;
39948;SDS011;29070;48.102;-1.652;2023-09-07T21:43:59;12.77;;;4.73;;
39948;SDS011;29070;48.102;-1.652;2023-09-07T21:48:59;11.13;;;4.77;;
39948;SDS011;29070;48.102;-1.652;2023-09-07T21:54:00;8.87;;;4.63;;
39948;SDS011;29070;48.102;-1.652;2023-09-07T21:59:01;9.05;;;4.50;;
39948;SDS011;29070;48.102;-1.652;2023-09-07T22:04:02;11.27;;;4.55;;
39948;SDS011;29070;48.102;-1.652;2023-09-07T22:09:03;9.38;;;4.38;;
39948;SDS011;29070;48.102;-1.652;2023-09-07T22:14:04;7.78;;;4.45;;
39948;SDS011;29070;48.102;-1.652;2023-09-07T22:19:05;12.00;;;4.53;;
39948;SDS011;29070;48.102;-1.652;2023-09-07T22:24:05;7.10;;;3.67;;
39948;SDS011;29070;48.102;-1.652;2023-09-07T22:29:06;8.13;;;4.75;;
39948;SDS011;29070;48.102;-1.652;2023-09-07T22:34:07;10.88;;;3.90;;
39948;SDS011;29070;48.102;-1.652;2023-09-07T22:39:08;10.60;;;4.43;;
39948;SDS011;29070;48.102;-1.652;2023-09-07T22:44:10;11.23;;;4.68;;
39948;SDS011;29070;48.102;-1.652;2023-09-07T22:49:10;10.32;;;4.28;;
39948;SDS011;29070;48.102;-1.652;2023-09-07T22:54:10;8.87;;;4.40;;
39948;SDS011;29070;48.102;-1.652;2023-09-07T22:59:11;10.00;;;4.27;;
39948;SDS011;29070;48.102;-1.652;2023-09-07T23:04:11;12.53;;;4.30;;
39948;SDS011;29070;48.102;-1.652;2023-09-07T23:09:11;10.80;;;4.47;;
39948;SDS011;29070;48.102;-1.652;2023-09-07T23:14:12;10.40;;;4.93;;
39948;SDS011;29070;48.102;-1.652;2023-09-07T23:19:12;10.63;;;4.17;;
39948;SDS011;29070;48.102;-1.652;2023-09-07T23:24:14;9.88;;;4.35;;
39948;SDS011;29070;48.102;-1.652;2023-09-07T23:29:15;9.73;;;4.43;;
39948;SDS011;29070;48.102;-1.652;2023-09-07T23:34:15;9.03;;;4.60;;
39948;SDS011;29070;48.102;-1.652;2023-09-07T23:39:15;9.27;;;4.13;;
39948;SDS011;29070;48.102;-1.652;2023-09-07T23:44:16;11.63;;;4.07;;
39948;SDS011;29070;48.102;-1.652;2023-09-07T23:49:16;8.27;;;4.00;;
39948;SDS011;29070;48.102;-1.652;2023-09-07T23:54:17;11.33;;;4.30;;
39948;SDS011;29070;48.102;-1.652;2023-09-07T23:59:17;15.00;;;4.90;;
